createdAt,value
2023-03-29T00:00:08.156Z,79.96
2023-03-29T00:02:39.163Z,79.88
2023-03-29T00:05:07.443Z,79.89
2023-03-29T00:07:34.667Z,79.78
2023-03-29T00:10:04.705Z,79.87
2023-03-29T00:12:32.784Z,79.84
2023-03-29T00:14:59.927Z,79.62
2023-03-29T00:17:26.817Z,79.54
2023-03-29T00:19:53.753Z,79.64
2023-03-29T00:22:21.380Z,79.57
2023-03-29T00:24:49.210Z,79.79
2023-03-29T00:27:16.536Z,79.73
2023-03-29T00:29:43.585Z,79.61
2023-03-29T00:32:10.590Z,79.58
2023-03-29T00:34:37.716Z,79.56
2023-03-29T00:37:08.845Z,79.42
2023-03-29T00:39:36.914Z,79.53
2023-03-29T00:42:04.164Z,79.53
2023-03-29T00:44:57.567Z,79.51
2023-03-29T00:47:33.221Z,79.45
2023-03-29T00:50:22.379Z,79.68
2023-03-29T00:53:21.779Z,79.60
2023-03-29T00:55:57.701Z,79.55
2023-03-29T00:58:47.655Z,79.54
2023-03-29T01:01:21.191Z,79.65
2023-03-29T01:04:04.301Z,79.47
2023-03-29T01:06:39.228Z,79.32
2023-03-29T01:09:12.628Z,79.27
2023-03-29T01:11:53.105Z,79.28
2023-03-29T01:14:35.158Z,79.25
2023-03-29T01:17:02.751Z,79.31
2023-03-29T01:19:38.946Z,79.32
2023-03-29T01:22:28.233Z,79.26
2023-03-29T01:25:12.454Z,79.41
2023-03-29T01:28:10.635Z,79.47
2023-03-29T01:30:55.370Z,79.54
2023-03-29T01:33:34.052Z,79.43
2023-03-29T01:36:23.289Z,79.54
2023-03-29T01:38:57.052Z,79.68
2023-03-29T01:41:45.614Z,79.44
2023-03-29T01:44:56.339Z,79.36
2023-03-29T01:47:47.286Z,79.46
2023-03-29T01:50:37.147Z,79.46
2023-03-29T01:53:34.098Z,79.49
2023-03-29T01:56:37.851Z,79.62
2023-03-29T01:59:14.678Z,79.59
2023-03-29T02:01:49.647Z,79.61
2023-03-29T02:04:25.922Z,79.65
2023-03-29T02:06:57.655Z,79.69
2023-03-29T02:09:24.801Z,79.31
2023-03-29T02:11:53.697Z,79.23
2023-03-29T02:14:21.297Z,79.41
2023-03-29T02:16:49.575Z,79.32
2023-03-29T02:19:19.573Z,79.21
2023-03-29T02:21:58.289Z,79.62
2023-03-29T02:24:28.218Z,79.86
2023-03-29T02:26:55.222Z,80.15
2023-03-29T02:29:22.221Z,80.13
2023-03-29T02:32:04.714Z,80.65
2023-03-29T02:34:47.696Z,80.66
2023-03-29T02:37:20.692Z,81.19
2023-03-29T02:39:52.448Z,81.38
2023-03-29T02:42:20.579Z,81.53
2023-03-29T02:44:54.511Z,81.67
2023-03-29T02:47:32.027Z,82.05
2023-03-29T02:50:00.525Z,82.32
2023-03-29T02:52:39.355Z,82.48
2023-03-29T02:55:16.199Z,82.74
2023-03-29T02:57:43.924Z,83.09
2023-03-29T03:00:14.604Z,83.23
2023-03-29T03:02:41.922Z,83.38
2023-03-29T03:05:10.585Z,83.59
2023-03-29T03:07:40.513Z,83.96
2023-03-29T03:10:10.363Z,84.27
2023-03-29T03:12:38.627Z,84.45
2023-03-29T03:15:06.720Z,84.62
2023-03-29T03:17:34.006Z,84.59
2023-03-29T03:20:01.144Z,84.95
2023-03-29T03:22:28.551Z,85.06
2023-03-29T03:24:56.303Z,85.05
2023-03-29T03:27:23.240Z,85.08
2023-03-29T03:29:50.524Z,85.08
2023-03-29T03:32:17.527Z,85.26
2023-03-29T03:35:08.805Z,85.47
2023-03-29T03:37:35.870Z,85.48
2023-03-29T03:40:03.729Z,85.62
2023-03-29T03:42:30.925Z,85.48
2023-03-29T03:44:58.837Z,85.59
2023-03-29T03:47:29.310Z,85.77
2023-03-29T03:49:58.699Z,85.94
2023-03-29T03:52:27.031Z,85.86
2023-03-29T03:54:54.004Z,85.78
2023-03-29T03:57:44.153Z,85.85
2023-03-29T04:00:21.466Z,86.18
2023-03-29T04:03:10.838Z,85.94
2023-03-29T04:05:44.609Z,86.20
2023-03-29T04:08:13.311Z,86.33
2023-03-29T04:11:07.609Z,86.21
2023-03-29T04:13:37.540Z,86.35
2023-03-29T04:16:21.773Z,86.58
2023-03-29T04:18:49.685Z,86.61
2023-03-29T04:21:18.324Z,86.59
2023-03-29T04:23:48.840Z,86.65
2023-03-29T04:26:17.727Z,86.90
2023-03-29T04:28:50.534Z,86.85
2023-03-29T04:31:22.972Z,86.88
2023-03-29T04:34:22.582Z,86.86
2023-03-29T04:36:53.967Z,87.07
2023-03-29T04:39:31.940Z,87.10
2023-03-29T04:42:00.154Z,87.03
2023-03-29T04:44:29.879Z,86.63
2023-03-29T04:47:00.921Z,87.59
2023-03-29T04:49:47.465Z,88.32
2023-03-29T04:52:24.514Z,87.14
2023-03-29T04:54:52.479Z,86.29
2023-03-29T04:57:33.447Z,86.04
2023-03-29T05:00:20.366Z,85.70
2023-03-29T05:03:14.629Z,85.09
2023-03-29T05:05:54.459Z,83.92
2023-03-29T05:08:21.723Z,83.27
2023-03-29T05:11:11.571Z,82.57
2023-03-29T05:13:38.639Z,82.26
2023-03-29T05:16:07.708Z,82.24
2023-03-29T05:18:35.670Z,82.02
2023-03-29T05:21:04.979Z,82.11
2023-03-29T05:23:34.384Z,82.22
2023-03-29T05:26:23.203Z,82.14
2023-03-29T05:28:53.395Z,82.43
2023-03-29T05:31:20.491Z,82.66
2023-03-29T05:33:52.684Z,82.81
2023-03-29T05:36:21.429Z,82.68
2023-03-29T05:38:50.753Z,82.88
2023-03-29T05:41:21.352Z,82.73
2023-03-29T05:44:21.252Z,82.70
2023-03-29T05:46:54.178Z,82.70
2023-03-29T05:49:21.932Z,82.79
2023-03-29T05:52:09.414Z,82.94
2023-03-29T05:54:37.881Z,82.75
2023-03-29T05:57:06.359Z,82.78
2023-03-29T05:59:33.908Z,82.61
2023-03-29T06:02:03.523Z,82.52
2023-03-29T06:04:31.938Z,82.88
2023-03-29T06:07:32.054Z,82.65
2023-03-29T06:10:23.682Z,82.55
2023-03-29T06:12:57.958Z,82.50
2023-03-29T06:15:26.415Z,82.51
2023-03-29T06:18:03.622Z,82.46
2023-03-29T06:20:31.121Z,82.23
2023-03-29T06:23:03.969Z,82.31
2023-03-29T06:25:31.782Z,82.20
2023-03-29T06:27:58.949Z,82.32
2023-03-29T06:30:25.965Z,81.98
2023-03-29T06:32:55.865Z,82.03
2023-03-29T06:35:50.183Z,81.93
2023-03-29T06:38:22.699Z,81.93
2023-03-29T06:41:08.596Z,82.00
2023-03-29T06:43:54.997Z,81.99
2023-03-29T06:46:25.282Z,81.71
2023-03-29T06:49:01.539Z,81.67
2023-03-29T06:51:43.218Z,81.46
2023-03-29T06:54:11.650Z,81.46
2023-03-29T06:56:47.321Z,81.56
2023-03-29T06:59:20.620Z,81.59
2023-03-29T07:01:57.472Z,81.50
2023-03-29T07:05:01.417Z,81.44
2023-03-29T07:07:44.067Z,81.05
2023-03-29T07:10:30.145Z,81.11
2023-03-29T07:13:23.592Z,81.06
2023-03-29T07:15:52.468Z,80.87
2023-03-29T07:18:22.274Z,80.80
2023-03-29T07:20:49.566Z,80.75
2023-03-29T07:23:17.968Z,80.76
2023-03-29T07:25:46.961Z,80.70
2023-03-29T07:28:14.200Z,80.74
2023-03-29T07:30:41.381Z,80.68
2023-03-29T07:33:14.277Z,80.18
2023-03-29T07:35:57.249Z,80.00
2023-03-29T07:38:25.274Z,79.78
2023-03-29T07:40:59.667Z,79.80
2023-03-29T07:43:42.980Z,79.55
2023-03-29T07:46:11.770Z,79.41
2023-03-29T07:48:39.868Z,79.43
2023-03-29T07:51:09.468Z,79.05
2023-03-29T07:53:49.684Z,79.02
2023-03-29T07:56:43.002Z,78.54
2023-03-29T07:59:12.594Z,78.63
2023-03-29T08:01:42.317Z,78.63
2023-03-29T08:04:32.540Z,78.61
2023-03-29T08:07:20.018Z,78.36
2023-03-29T08:10:09.127Z,78.09
2023-03-29T08:12:59.181Z,78.23
2023-03-29T08:15:39.467Z,77.92
2023-03-29T08:18:18.646Z,77.74
2023-03-29T08:20:45.691Z,77.86
2023-03-29T08:23:12.810Z,77.67
2023-03-29T08:25:39.862Z,77.94
2023-03-29T08:28:06.895Z,77.93
2023-03-29T08:30:45.691Z,78.04
2023-03-29T08:33:13.249Z,77.89
2023-03-29T08:35:41.703Z,77.94
2023-03-29T08:38:21.777Z,77.92
2023-03-29T08:40:50.234Z,78.13
2023-03-29T08:43:58.662Z,78.42
2023-03-29T08:47:46.086Z,78.90
2023-03-29T08:50:15.087Z,79.38
2023-03-29T08:52:57.514Z,79.66
2023-03-29T08:56:11.723Z,80.13
2023-03-29T08:59:17.326Z,80.23
2023-03-29T09:01:48.650Z,80.40
2023-03-29T09:04:31.676Z,80.11
2023-03-29T09:07:11.884Z,80.03
2023-03-29T09:09:44.042Z,80.25
2023-03-29T09:12:42.758Z,79.86
2023-03-29T09:15:15.424Z,79.66
2023-03-29T09:18:11.337Z,79.75
2023-03-29T09:20:50.268Z,79.81
2023-03-29T09:23:44.581Z,79.47
2023-03-29T09:26:45.007Z,79.27
2023-03-29T09:30:11.100Z,78.93
2023-03-29T09:33:15.431Z,78.92
2023-03-29T09:36:23.637Z,78.76
2023-03-29T09:38:54.370Z,78.52
2023-03-29T09:41:43.540Z,77.36
2023-03-29T09:44:30.248Z,76.92
2023-03-29T09:47:26.319Z,76.75
2023-03-29T09:50:23.064Z,75.39
2023-03-29T09:52:55.234Z,75.61
2023-03-29T09:55:31.064Z,75.55
2023-03-29T09:58:31.647Z,75.61
2023-03-29T10:01:03.064Z,75.46
2023-03-29T10:03:34.935Z,75.53
2023-03-29T10:06:14.606Z,75.83
2023-03-29T10:08:52.781Z,76.38
2023-03-29T10:11:28.865Z,76.46
2023-03-29T10:14:11.629Z,76.57
2023-03-29T10:16:42.178Z,76.59
2023-03-29T10:19:16.959Z,76.24
2023-03-29T10:21:44.022Z,76.18
2023-03-29T10:24:11.444Z,76.55
2023-03-29T10:26:39.051Z,76.83
2023-03-29T10:29:08.317Z,77.14
2023-03-29T10:31:41.541Z,77.29
2023-03-29T10:34:15.208Z,77.20
2023-03-29T10:36:53.534Z,77.07
2023-03-29T10:39:21.114Z,77.17
2023-03-29T10:41:52.792Z,77.80
2023-03-29T10:44:32.877Z,78.08
2023-03-29T10:47:21.500Z,78.51
2023-03-29T10:49:58.952Z,79.02
2023-03-29T10:52:26.646Z,79.44
2023-03-29T10:54:56.541Z,79.75
2023-03-29T10:57:41.874Z,79.96
2023-03-29T11:00:27.403Z,80.65
2023-03-29T11:03:22.673Z,80.73
2023-03-29T11:06:36.207Z,81.34
2023-03-29T11:09:42.229Z,81.49
2023-03-29T11:12:34.562Z,81.01
2023-03-29T11:15:48.012Z,81.16
2023-03-29T11:19:06.764Z,80.95
2023-03-29T11:21:49.985Z,80.85
2023-03-29T11:24:37.896Z,80.43
2023-03-29T11:27:14.030Z,80.20
2023-03-29T11:30:15.719Z,78.86
2023-03-29T11:33:08.964Z,78.35
2023-03-29T11:36:01.655Z,78.20
2023-03-29T11:38:37.760Z,77.92
2023-03-29T11:41:29.339Z,77.37
2023-03-29T11:44:11.427Z,76.73
2023-03-29T11:47:10.205Z,76.74
2023-03-29T11:49:57.355Z,76.54
2023-03-29T11:52:33.698Z,76.62
2023-03-29T11:55:19.257Z,76.65
2023-03-29T11:58:06.050Z,76.55
2023-03-29T12:00:40.492Z,76.61
2023-03-29T12:03:41.159Z,76.69
2023-03-29T12:06:22.364Z,77.21
2023-03-29T12:09:34.225Z,76.87
2023-03-29T12:12:29.328Z,75.75
2023-03-29T12:15:07.219Z,75.90
2023-03-29T12:17:51.471Z,75.35
2023-03-29T12:20:26.972Z,75.03
2023-03-29T12:22:55.604Z,75.23
2023-03-29T12:25:34.512Z,74.49
2023-03-29T12:28:33.243Z,73.53
2023-03-29T12:31:22.596Z,72.54
2023-03-29T12:34:04.784Z,71.60
2023-03-29T12:37:32.020Z,71.61
2023-03-29T12:40:22.975Z,71.44
2023-03-29T12:43:31.464Z,71.07
2023-03-29T12:46:33.487Z,71.04
2023-03-29T12:49:13.100Z,71.15
2023-03-29T12:51:42.728Z,71.38
2023-03-29T12:54:20.816Z,71.55
2023-03-29T12:56:56.489Z,70.64
2023-03-29T12:59:48.265Z,70.34
2023-03-29T13:02:15.257Z,70.86
2023-03-29T13:04:54.495Z,70.71
2023-03-29T13:07:26.333Z,70.69
2023-03-29T13:10:01.364Z,71.05
2023-03-29T13:12:46.001Z,71.15
2023-03-29T13:15:16.904Z,70.93
2023-03-29T13:18:06.988Z,71.26
2023-03-29T13:20:57.075Z,69.79
2023-03-29T13:24:16.866Z,70.45
2023-03-29T13:27:22.197Z,69.71
2023-03-29T13:30:00.343Z,69.58
2023-03-29T13:32:46.426Z,68.59
2023-03-29T13:35:51.117Z,68.58
2023-03-29T13:38:26.257Z,67.30
2023-03-29T13:40:53.166Z,67.58
2023-03-29T13:43:25.125Z,67.18
2023-03-29T13:45:58.144Z,66.35
2023-03-29T13:48:29.508Z,66.53
2023-03-29T13:51:21.750Z,66.40
2023-03-29T13:53:58.324Z,66.36
2023-03-29T13:56:37.085Z,65.99
2023-03-29T13:59:23.889Z,65.72
2023-03-29T14:02:00.487Z,65.26
2023-03-29T14:04:44.968Z,64.82
2023-03-29T14:07:15.434Z,64.88
2023-03-29T14:09:49.709Z,64.72
2023-03-29T14:12:17.604Z,64.76
2023-03-29T14:14:58.349Z,64.35
2023-03-29T14:17:26.985Z,64.14
2023-03-29T14:20:00.996Z,64.73
2023-03-29T14:22:33.978Z,63.62
2023-03-29T14:25:11.822Z,63.98
2023-03-29T14:27:38.789Z,64.87
2023-03-29T14:30:36.200Z,64.20
2023-03-29T14:33:05.142Z,63.91
2023-03-29T14:35:33.438Z,63.60
2023-03-29T14:38:01.701Z,62.83
2023-03-29T14:40:31.000Z,62.93
2023-03-29T14:43:05.297Z,63.08
2023-03-29T14:45:32.716Z,63.54
2023-03-29T14:48:00.608Z,63.25
2023-03-29T14:50:31.114Z,62.54
2023-03-29T14:53:01.464Z,62.21
2023-03-29T14:55:28.799Z,62.54
2023-03-29T14:57:56.488Z,63.10
2023-03-29T15:00:42.367Z,63.25
2023-03-29T15:03:15.883Z,63.68
2023-03-29T15:05:51.973Z,63.85
2023-03-29T15:08:39.164Z,63.43
2023-03-29T15:11:16.848Z,63.49
2023-03-29T15:13:46.633Z,63.99
2023-03-29T15:16:19.728Z,63.13
2023-03-29T15:18:52.278Z,62.91
2023-03-29T15:21:21.961Z,62.99
2023-03-29T15:24:01.092Z,63.19
2023-03-29T15:26:37.412Z,63.75
2023-03-29T15:29:16.848Z,63.44
2023-03-29T15:31:56.922Z,63.58
2023-03-29T15:34:32.770Z,62.92
2023-03-29T15:37:01.776Z,63.63
2023-03-29T15:39:29.485Z,62.70
2023-03-29T15:41:58.193Z,62.90
2023-03-29T15:44:38.696Z,62.97
2023-03-29T15:47:13.288Z,63.31
2023-03-29T15:49:40.368Z,63.30
2023-03-29T15:52:07.270Z,63.29
2023-03-29T15:54:36.650Z,63.09
2023-03-29T15:57:12.406Z,63.65
2023-03-29T15:59:39.724Z,64.04
2023-03-29T16:02:13.485Z,64.21
2023-03-29T16:04:40.668Z,64.86
2023-03-29T16:07:14.952Z,65.01
2023-03-29T16:09:43.273Z,65.61
2023-03-29T16:12:12.347Z,65.69
2023-03-29T16:14:39.569Z,66.06
2023-03-29T16:17:06.954Z,66.08
2023-03-29T16:19:34.427Z,66.56
2023-03-29T16:22:07.066Z,66.86
2023-03-29T16:24:35.615Z,66.89
2023-03-29T16:27:03.868Z,67.20
2023-03-29T16:29:31.070Z,67.17
2023-03-29T16:31:58.336Z,67.47
2023-03-29T16:34:26.108Z,67.75
2023-03-29T16:36:53.627Z,68.26
2023-03-29T16:39:20.844Z,67.95
2023-03-29T16:41:49.955Z,68.36
2023-03-29T16:44:23.659Z,68.46
2023-03-29T16:46:57.443Z,68.72
2023-03-29T16:49:24.584Z,69.11
2023-03-29T16:51:51.548Z,69.22
2023-03-29T16:54:18.997Z,69.34
2023-03-29T16:56:46.947Z,69.58
2023-03-29T16:59:14.252Z,69.98
2023-03-29T17:01:41.310Z,70.00
2023-03-29T17:04:09.272Z,70.10
2023-03-29T17:06:36.515Z,70.31
2023-03-29T17:09:05.033Z,70.38
2023-03-29T17:11:32.564Z,70.57
2023-03-29T17:14:00.171Z,70.36
2023-03-29T17:16:29.012Z,70.81
2023-03-29T17:19:02.305Z,70.93
2023-03-29T17:21:30.758Z,70.82
2023-03-29T17:23:57.709Z,71.05
2023-03-29T17:26:24.629Z,71.04
2023-03-29T17:28:51.792Z,71.19
2023-03-29T17:31:19.413Z,70.99
2023-03-29T17:33:47.318Z,71.64
2023-03-29T17:36:14.593Z,71.71
2023-03-29T17:38:42.733Z,72.10
2023-03-29T17:41:09.958Z,71.82
2023-03-29T17:43:36.920Z,72.27
2023-03-29T17:46:05.857Z,72.87
2023-03-29T17:48:34.442Z,72.85
2023-03-29T17:51:04.026Z,73.51
2023-03-29T17:53:31.148Z,73.67
2023-03-29T17:55:58.078Z,74.01
2023-03-29T17:58:25.087Z,74.45
2023-03-29T18:00:52.157Z,74.76
2023-03-29T18:03:19.105Z,75.09
2023-03-29T18:05:46.097Z,75.41
2023-03-29T18:08:14.783Z,75.73
2023-03-29T18:10:41.769Z,75.88
2023-03-29T18:13:13.713Z,75.90
2023-03-29T18:15:40.667Z,76.39
2023-03-29T18:18:07.924Z,76.68
2023-03-29T18:20:34.966Z,76.92
2023-03-29T18:23:01.999Z,77.03
2023-03-29T18:25:29.450Z,77.16
2023-03-29T18:27:56.470Z,77.50
2023-03-29T18:30:23.434Z,77.65
2023-03-29T18:32:50.392Z,77.59
2023-03-29T18:35:17.486Z,77.83
2023-03-29T18:37:44.472Z,77.65
2023-03-29T18:40:11.939Z,78.20
2023-03-29T18:42:38.918Z,78.33
2023-03-29T18:45:06.466Z,78.45
2023-03-29T18:47:33.541Z,78.67
2023-03-29T18:50:02.409Z,78.81
2023-03-29T18:52:29.397Z,78.75
2023-03-29T18:54:56.338Z,79.05
2023-03-29T18:57:23.403Z,79.37
2023-03-29T18:59:50.402Z,80.12
2023-03-29T19:02:17.424Z,80.21
2023-03-29T19:04:44.523Z,80.03
2023-03-29T19:07:11.674Z,80.60
2023-03-29T19:09:38.707Z,80.70
2023-03-29T19:12:06.124Z,81.25
2023-03-29T19:14:33.054Z,81.54
2023-03-29T19:16:59.926Z,81.69
2023-03-29T19:19:27.168Z,81.75
2023-03-29T19:21:54.905Z,81.73
2023-03-29T19:24:22.037Z,82.06
2023-03-29T19:26:51.456Z,81.99
2023-03-29T19:29:18.454Z,82.13
2023-03-29T19:31:45.782Z,82.37
2023-03-29T19:34:12.866Z,82.42
2023-03-29T19:36:39.898Z,82.58
2023-03-29T19:39:07.206Z,82.60
2023-03-29T19:41:34.367Z,82.70
2023-03-29T19:44:01.473Z,82.80
2023-03-29T19:46:29.054Z,82.72
2023-03-29T19:48:56.784Z,82.91
2023-03-29T19:51:26.714Z,82.80
2023-03-29T19:53:55.569Z,83.03
2023-03-29T19:56:25.700Z,83.00
2023-03-29T19:58:52.990Z,83.19
2023-03-29T20:01:20.968Z,83.29
2023-03-29T20:03:49.579Z,83.41
2023-03-29T20:06:18.909Z,83.67
2023-03-29T20:08:46.960Z,83.81
2023-03-29T20:11:15.606Z,84.19
2023-03-29T20:13:44.917Z,84.28
2023-03-29T20:16:16.804Z,84.21
2023-03-29T20:18:45.519Z,84.25
2023-03-29T20:21:16.960Z,84.34
2023-03-29T20:23:44.811Z,84.36
2023-03-29T20:26:11.848Z,84.46
2023-03-29T20:28:39.279Z,84.60
2023-03-29T20:31:11.003Z,84.55
2023-03-29T20:33:39.387Z,84.73
2023-03-29T20:36:08.430Z,84.66
2023-03-29T20:38:35.875Z,84.91
2023-03-29T20:41:08.918Z,84.82
2023-03-29T20:43:37.761Z,85.09
2023-03-29T20:46:14.385Z,84.76
2023-03-29T20:48:53.227Z,84.84
2023-03-29T20:51:30.360Z,84.73
2023-03-29T20:54:04.449Z,84.72
2023-03-29T20:56:42.084Z,84.70
2023-03-29T20:59:12.592Z,85.17
2023-03-29T21:01:42.500Z,85.13
2023-03-29T21:04:10.862Z,84.71
2023-03-29T21:06:39.538Z,84.74
2023-03-29T21:09:07.033Z,84.59
2023-03-29T21:11:34.025Z,84.78
2023-03-29T21:14:01.373Z,84.83
2023-03-29T21:16:29.122Z,84.85
2023-03-29T21:18:56.645Z,84.89
2023-03-29T21:21:23.644Z,84.87
2023-03-29T21:23:50.625Z,85.24
2023-03-29T21:26:18.075Z,85.44
2023-03-29T21:28:45.041Z,85.15
2023-03-29T21:31:12.055Z,85.45
2023-03-29T21:33:39.100Z,85.27
2023-03-29T21:36:06.416Z,85.34
2023-03-29T21:38:33.507Z,84.99
2023-03-29T21:41:00.937Z,85.34
2023-03-29T21:43:28.043Z,85.33
2023-03-29T21:45:57.420Z,85.55
2023-03-29T21:48:24.431Z,85.36
2023-03-29T21:50:51.392Z,85.74
2023-03-29T21:53:18.439Z,85.36
2023-03-29T21:55:49.352Z,85.28
2023-03-29T21:58:16.980Z,85.22
2023-03-29T22:00:45.964Z,85.09
2023-03-29T22:03:15.832Z,85.07
2023-03-29T22:05:44.326Z,84.89
2023-03-29T22:08:11.713Z,84.81
2023-03-29T22:10:41.472Z,84.82
2023-03-29T22:13:09.227Z,84.86
2023-03-29T22:15:38.854Z,84.66
2023-03-29T22:18:05.964Z,84.79
2023-03-29T22:20:34.184Z,84.62
2023-03-29T22:23:01.207Z,84.25
2023-03-29T22:25:28.161Z,83.88
2023-03-29T22:27:55.161Z,83.97
2023-03-29T22:30:22.762Z,83.54
2023-03-29T22:32:49.754Z,83.51
2023-03-29T22:35:16.979Z,83.42
2023-03-29T22:37:44.154Z,83.27
2023-03-29T22:40:13.143Z,83.22
2023-03-29T22:42:40.264Z,83.46
2023-03-29T22:45:08.227Z,83.15
2023-03-29T22:47:35.460Z,83.01
2023-03-29T22:50:02.569Z,82.64
2023-03-29T22:52:29.498Z,82.66
2023-03-29T22:54:56.434Z,82.32
2023-03-29T22:57:23.489Z,82.50
2023-03-29T22:59:50.478Z,82.24
2023-03-29T23:02:17.541Z,82.03
2023-03-29T23:04:45.511Z,81.45
2023-03-29T23:07:12.597Z,81.19
2023-03-29T23:09:39.499Z,81.26
2023-03-29T23:12:07.146Z,81.36
2023-03-29T23:14:34.598Z,81.68
2023-03-29T23:17:01.581Z,81.20
2023-03-29T23:19:28.504Z,81.60
2023-03-29T23:21:55.433Z,81.24
2023-03-29T23:24:22.767Z,81.23
2023-03-29T23:26:49.680Z,81.25
2023-03-29T23:29:16.570Z,81.03
2023-03-29T23:31:44.202Z,80.95
2023-03-29T23:34:11.295Z,80.80
2023-03-29T23:36:38.203Z,80.93
2023-03-29T23:39:07.882Z,80.43
2023-03-29T23:41:34.831Z,80.11
2023-03-29T23:44:03.747Z,80.21
2023-03-29T23:46:31.344Z,80.41
2023-03-29T23:48:58.878Z,80.03
2023-03-29T23:51:28.279Z,80.08
2023-03-29T23:53:56.781Z,79.83
2023-03-29T23:56:24.227Z,79.95
2023-03-29T23:58:51.704Z,79.77
